sensor_id;sensor_type;location;lat;lon;timestamp;P1;durP1;ratioP1;P2;durP2;ratioP2
72087;SDS011;59961;50.232;8.616;2023-10-13T00:01:00;14.57;;;6.30;;
72087;SDS011;59961;50.232;8.616;2023-10-13T00:03:29;13.30;;;6.47;;
72087;SDS011;59961;50.232;8.616;2023-10-13T00:05:57;12.52;;;5.50;;
72087;SDS011;59961;50.232;8.616;2023-10-13T00:08:24;12.83;;;6.53;;
72087;SDS011;59961;50.232;8.616;2023-10-13T00:10:49;12.53;;;6.17;;
72087;SDS011;59961;50.232;8.616;2023-10-13T00:13:14;12.77;;;5.97;;
72087;SDS011;59961;50.232;8.616;2023-10-13T00:15:41;13.40;;;5.97;;
72087;SDS011;59961;50.232;8.616;2023-10-13T00:18:17;12.80;;;6.25;;
72087;SDS011;59961;50.232;8.616;2023-10-13T00:20:44;13.27;;;6.55;;
72087;SDS011;59961;50.232;8.616;2023-10-13T00:23:14;11.27;;;6.07;;
72087;SDS011;59961;50.232;8.616;2023-10-13T00:25:39;13.53;;;6.07;;
72087;SDS011;59961;50.232;8.616;2023-10-13T00:28:08;11.93;;;6.45;;
72087;SDS011;59961;50.232;8.616;2023-10-13T00:30:34;9.83;;;5.80;;
72087;SDS011;59961;50.232;8.616;2023-10-13T00:33:01;13.98;;;6.40;;
72087;SDS011;59961;50.232;8.616;2023-10-13T00:35:27;17.63;;;7.07;;
72087;SDS011;59961;50.232;8.616;2023-10-13T00:38:02;16.98;;;7.03;;
72087;SDS011;59961;50.232;8.616;2023-10-13T00:40:41;13.93;;;5.23;;
72087;SDS011;59961;50.232;8.616;2023-10-13T00:43:08;15.10;;;5.55;;
72087;SDS011;59961;50.232;8.616;2023-10-13T00:45:50;12.05;;;5.93;;
72087;SDS011;59961;50.232;8.616;2023-10-13T00:48:38;12.57;;;6.38;;
72087;SDS011;59961;50.232;8.616;2023-10-13T00:51:19;13.05;;;6.05;;
72087;SDS011;59961;50.232;8.616;2023-10-13T00:53:57;13.97;;;5.57;;
72087;SDS011;59961;50.232;8.616;2023-10-13T00:56:24;12.32;;;5.45;;
72087;SDS011;59961;50.232;8.616;2023-10-13T00:58:52;12.38;;;5.50;;
72087;SDS011;59961;50.232;8.616;2023-10-13T01:01:18;11.80;;;6.25;;
72087;SDS011;59961;50.232;8.616;2023-10-13T01:03:47;11.37;;;5.50;;
72087;SDS011;59961;50.232;8.616;2023-10-13T01:06:16;16.15;;;5.40;;
72087;SDS011;59961;50.232;8.616;2023-10-13T01:08:42;11.65;;;6.07;;
72087;SDS011;59961;50.232;8.616;2023-10-13T01:11:09;11.17;;;5.33;;
72087;SDS011;59961;50.232;8.616;2023-10-13T01:13:35;14.13;;;6.43;;
72087;SDS011;59961;50.232;8.616;2023-10-13T01:16:02;10.43;;;5.85;;
72087;SDS011;59961;50.232;8.616;2023-10-13T01:18:27;12.80;;;5.73;;
72087;SDS011;59961;50.232;8.616;2023-10-13T01:20:53;12.83;;;5.90;;
72087;SDS011;59961;50.232;8.616;2023-10-13T01:23:18;12.90;;;5.47;;
72087;SDS011;59961;50.232;8.616;2023-10-13T01:25:44;15.47;;;6.10;;
72087;SDS011;59961;50.232;8.616;2023-10-13T01:28:09;13.43;;;6.38;;
72087;SDS011;59961;50.232;8.616;2023-10-13T01:30:34;16.40;;;6.63;;
72087;SDS011;59961;50.232;8.616;2023-10-13T01:33:03;14.48;;;6.63;;
72087;SDS011;59961;50.232;8.616;2023-10-13T01:35:28;15.47;;;6.73;;
72087;SDS011;59961;50.232;8.616;2023-10-13T01:38:01;13.80;;;6.60;;
72087;SDS011;59961;50.232;8.616;2023-10-13T01:40:26;13.17;;;6.37;;
72087;SDS011;59961;50.232;8.616;2023-10-13T01:42:54;15.82;;;6.57;;
72087;SDS011;59961;50.232;8.616;2023-10-13T01:45:20;13.15;;;6.53;;
72087;SDS011;59961;50.232;8.616;2023-10-13T01:47:45;14.53;;;6.77;;
72087;SDS011;59961;50.232;8.616;2023-10-13T01:50:10;15.52;;;7.13;;
72087;SDS011;59961;50.232;8.616;2023-10-13T01:52:44;15.00;;;6.70;;
72087;SDS011;59961;50.232;8.616;2023-10-13T01:55:09;15.48;;;6.13;;
72087;SDS011;59961;50.232;8.616;2023-10-13T01:57:36;15.07;;;6.80;;
72087;SDS011;59961;50.232;8.616;2023-10-13T02:00:01;12.00;;;6.30;;
72087;SDS011;59961;50.232;8.616;2023-10-13T02:02:35;13.90;;;6.35;;
72087;SDS011;59961;50.232;8.616;2023-10-13T02:05:03;16.40;;;7.03;;
72087;SDS011;59961;50.232;8.616;2023-10-13T02:07:28;16.50;;;7.32;;
72087;SDS011;59961;50.232;8.616;2023-10-13T02:09:59;14.65;;;7.68;;
72087;SDS011;59961;50.232;8.616;2023-10-13T02:12:24;18.03;;;7.00;;
72087;SDS011;59961;50.232;8.616;2023-10-13T02:15:07;16.13;;;6.67;;
72087;SDS011;59961;50.232;8.616;2023-10-13T02:17:32;12.87;;;7.07;;
72087;SDS011;59961;50.232;8.616;2023-10-13T02:20:06;14.07;;;5.97;;
72087;SDS011;59961;50.232;8.616;2023-10-13T02:22:41;14.80;;;6.47;;
72087;SDS011;59961;50.232;8.616;2023-10-13T02:25:14;13.63;;;6.85;;
72087;SDS011;59961;50.232;8.616;2023-10-13T02:27:42;15.00;;;6.43;;
72087;SDS011;59961;50.232;8.616;2023-10-13T02:30:08;20.27;;;6.90;;
72087;SDS011;59961;50.232;8.616;2023-10-13T02:32:38;12.40;;;6.20;;
72087;SDS011;59961;50.232;8.616;2023-10-13T02:35:08;12.50;;;5.93;;
72087;SDS011;59961;50.232;8.616;2023-10-13T02:37:40;14.60;;;6.72;;
72087;SDS011;59961;50.232;8.616;2023-10-13T02:40:08;13.23;;;6.18;;
72087;SDS011;59961;50.232;8.616;2023-10-13T02:42:33;13.87;;;6.00;;
72087;SDS011;59961;50.232;8.616;2023-10-13T02:44:58;15.35;;;7.03;;
72087;SDS011;59961;50.232;8.616;2023-10-13T02:47:23;14.57;;;6.63;;
72087;SDS011;59961;50.232;8.616;2023-10-13T02:49:49;14.87;;;6.43;;
72087;SDS011;59961;50.232;8.616;2023-10-13T02:52:14;12.67;;;6.30;;
72087;SDS011;59961;50.232;8.616;2023-10-13T02:54:40;14.00;;;6.77;;
72087;SDS011;59961;50.232;8.616;2023-10-13T02:57:12;13.00;;;6.40;;
72087;SDS011;59961;50.232;8.616;2023-10-13T02:59:37;19.23;;;6.83;;
72087;SDS011;59961;50.232;8.616;2023-10-13T03:02:06;12.38;;;6.72;;
72087;SDS011;59961;50.232;8.616;2023-10-13T03:04:43;13.20;;;6.65;;
72087;SDS011;59961;50.232;8.616;2023-10-13T03:07:08;18.20;;;6.10;;
72087;SDS011;59961;50.232;8.616;2023-10-13T03:09:34;15.32;;;6.18;;
72087;SDS011;59961;50.232;8.616;2023-10-13T03:12:02;15.70;;;6.75;;
72087;SDS011;59961;50.232;8.616;2023-10-13T03:14:28;16.15;;;6.22;;
72087;SDS011;59961;50.232;8.616;2023-10-13T03:16:57;14.38;;;5.50;;
72087;SDS011;59961;50.232;8.616;2023-10-13T03:19:27;15.40;;;6.55;;
72087;SDS011;59961;50.232;8.616;2023-10-13T03:21:58;12.90;;;6.70;;
72087;SDS011;59961;50.232;8.616;2023-10-13T03:24:34;14.27;;;6.63;;
72087;SDS011;59961;50.232;8.616;2023-10-13T03:27:00;16.60;;;7.60;;
72087;SDS011;59961;50.232;8.616;2023-10-13T03:29:33;12.75;;;6.60;;
72087;SDS011;59961;50.232;8.616;2023-10-13T03:31:59;14.48;;;7.53;;
72087;SDS011;59961;50.232;8.616;2023-10-13T03:34:32;16.90;;;6.70;;
72087;SDS011;59961;50.232;8.616;2023-10-13T03:36:57;12.00;;;6.13;;
72087;SDS011;59961;50.232;8.616;2023-10-13T03:39:23;13.90;;;6.70;;
72087;SDS011;59961;50.232;8.616;2023-10-13T03:41:53;13.45;;;7.03;;
72087;SDS011;59961;50.232;8.616;2023-10-13T03:44:19;12.63;;;6.22;;
72087;SDS011;59961;50.232;8.616;2023-10-13T03:46:44;11.10;;;5.97;;
72087;SDS011;59961;50.232;8.616;2023-10-13T03:49:12;13.73;;;6.00;;
72087;SDS011;59961;50.232;8.616;2023-10-13T03:51:38;13.50;;;5.73;;
72087;SDS011;59961;50.232;8.616;2023-10-13T03:54:04;12.98;;;6.00;;
72087;SDS011;59961;50.232;8.616;2023-10-13T03:56:32;12.15;;;6.43;;
72087;SDS011;59961;50.232;8.616;2023-10-13T03:59:06;14.70;;;6.10;;
72087;SDS011;59961;50.232;8.616;2023-10-13T04:01:35;12.98;;;6.45;;
72087;SDS011;59961;50.232;8.616;2023-10-13T04:04:10;14.80;;;6.90;;
72087;SDS011;59961;50.232;8.616;2023-10-13T04:06:37;14.00;;;6.28;;
72087;SDS011;59961;50.232;8.616;2023-10-13T04:09:17;14.55;;;6.00;;
72087;SDS011;59961;50.232;8.616;2023-10-13T04:11:58;14.60;;;6.18;;
72087;SDS011;59961;50.232;8.616;2023-10-13T04:14:26;16.38;;;6.18;;
72087;SDS011;59961;50.232;8.616;2023-10-13T04:17:10;14.23;;;6.00;;
72087;SDS011;59961;50.232;8.616;2023-10-13T04:19:47;12.35;;;5.03;;
72087;SDS011;59961;50.232;8.616;2023-10-13T04:22:30;13.98;;;6.10;;
72087;SDS011;59961;50.232;8.616;2023-10-13T04:25:28;12.90;;;6.45;;
72087;SDS011;59961;50.232;8.616;2023-10-13T04:28:00;14.60;;;6.47;;
72087;SDS011;59961;50.232;8.616;2023-10-13T04:30:44;13.40;;;6.27;;
72087;SDS011;59961;50.232;8.616;2023-10-13T04:33:22;13.82;;;6.22;;
72087;SDS011;59961;50.232;8.616;2023-10-13T04:36:13;16.50;;;6.28;;
72087;SDS011;59961;50.232;8.616;2023-10-13T04:38:45;14.75;;;6.63;;
72087;SDS011;59961;50.232;8.616;2023-10-13T04:44:22;12.82;;;6.32;;
72087;SDS011;59961;50.232;8.616;2023-10-13T04:47:05;14.85;;;6.18;;
72087;SDS011;59961;50.232;8.616;2023-10-13T04:49:43;13.68;;;6.25;;
72087;SDS011;59961;50.232;8.616;2023-10-13T04:52:11;12.57;;;6.40;;
72087;SDS011;59961;50.232;8.616;2023-10-13T04:54:37;14.43;;;7.03;;
72087;SDS011;59961;50.232;8.616;2023-10-13T04:57:12;15.90;;;6.90;;
72087;SDS011;59961;50.232;8.616;2023-10-13T04:59:56;17.92;;;7.82;;
72087;SDS011;59961;50.232;8.616;2023-10-13T05:02:40;11.50;;;6.20;;
72087;SDS011;59961;50.232;8.616;2023-10-13T05:07:55;14.40;;;6.82;;
72087;SDS011;59961;50.232;8.616;2023-10-13T05:10:39;13.13;;;6.93;;
72087;SDS011;59961;50.232;8.616;2023-10-13T05:13:22;12.23;;;6.20;;
72087;SDS011;59961;50.232;8.616;2023-10-13T05:16:06;12.50;;;6.70;;
72087;SDS011;59961;50.232;8.616;2023-10-13T05:18:50;15.18;;;7.20;;
72087;SDS011;59961;50.232;8.616;2023-10-13T05:21:34;11.27;;;5.97;;
72087;SDS011;59961;50.232;8.616;2023-10-13T05:24:17;12.80;;;7.13;;
72087;SDS011;59961;50.232;8.616;2023-10-13T05:27:01;14.30;;;7.00;;
72087;SDS011;59961;50.232;8.616;2023-10-13T05:29:46;17.45;;;7.22;;
72087;SDS011;59961;50.232;8.616;2023-10-13T05:32:30;15.85;;;6.82;;
72087;SDS011;59961;50.232;8.616;2023-10-13T05:35:13;17.02;;;6.57;;
72087;SDS011;59961;50.232;8.616;2023-10-13T05:37:58;14.63;;;7.37;;
72087;SDS011;59961;50.232;8.616;2023-10-13T05:40:52;15.35;;;6.95;;
72087;SDS011;59961;50.232;8.616;2023-10-13T05:43:35;15.18;;;6.82;;
72087;SDS011;59961;50.232;8.616;2023-10-13T05:46:19;14.40;;;6.43;;
72087;SDS011;59961;50.232;8.616;2023-10-13T05:48:54;15.23;;;6.47;;
72087;SDS011;59961;50.232;8.616;2023-10-13T05:51:25;15.23;;;7.00;;
72087;SDS011;59961;50.232;8.616;2023-10-13T05:54:17;15.75;;;6.40;;
72087;SDS011;59961;50.232;8.616;2023-10-13T05:56:42;14.85;;;7.25;;
72087;SDS011;59961;50.232;8.616;2023-10-13T05:59:27;15.38;;;7.18;;
72087;SDS011;59961;50.232;8.616;2023-10-13T06:02:11;15.38;;;7.30;;
72087;SDS011;59961;50.232;8.616;2023-10-13T06:04:55;17.50;;;7.30;;
72087;SDS011;59961;50.232;8.616;2023-10-13T06:07:39;16.17;;;7.70;;
72087;SDS011;59961;50.232;8.616;2023-10-13T06:10:23;14.85;;;7.10;;
72087;SDS011;59961;50.232;8.616;2023-10-13T06:13:07;15.48;;;5.88;;
72087;SDS011;59961;50.232;8.616;2023-10-13T06:15:50;23.45;;;8.60;;
72087;SDS011;59961;50.232;8.616;2023-10-13T06:18:34;15.43;;;6.67;;
72087;SDS011;59961;50.232;8.616;2023-10-13T06:21:17;15.30;;;6.30;;
72087;SDS011;59961;50.232;8.616;2023-10-13T06:24:01;14.93;;;7.20;;
72087;SDS011;59961;50.232;8.616;2023-10-13T06:26:48;12.80;;;5.82;;
72087;SDS011;59961;50.232;8.616;2023-10-13T06:29:32;18.15;;;7.38;;
72087;SDS011;59961;50.232;8.616;2023-10-13T06:31:58;12.47;;;6.33;;
72087;SDS011;59961;50.232;8.616;2023-10-13T06:34:23;15.70;;;6.53;;
72087;SDS011;59961;50.232;8.616;2023-10-13T06:37:02;16.25;;;6.30;;
72087;SDS011;59961;50.232;8.616;2023-10-13T06:39:27;14.10;;;6.27;;
72087;SDS011;59961;50.232;8.616;2023-10-13T06:42:01;15.07;;;5.60;;
72087;SDS011;59961;50.232;8.616;2023-10-13T06:44:28;11.43;;;6.55;;
72087;SDS011;59961;50.232;8.616;2023-10-13T06:46:57;15.77;;;6.97;;
72087;SDS011;59961;50.232;8.616;2023-10-13T06:49:22;17.40;;;6.07;;
72087;SDS011;59961;50.232;8.616;2023-10-13T06:51:48;14.70;;;6.30;;
72087;SDS011;59961;50.232;8.616;2023-10-13T06:54:14;14.18;;;6.72;;
72087;SDS011;59961;50.232;8.616;2023-10-13T06:56:50;15.88;;;6.53;;
72087;SDS011;59961;50.232;8.616;2023-10-13T06:59:18;16.45;;;6.28;;
72087;SDS011;59961;50.232;8.616;2023-10-13T07:01:44;9.47;;;5.20;;
72087;SDS011;59961;50.232;8.616;2023-10-13T07:04:10;13.05;;;4.90;;
72087;SDS011;59961;50.232;8.616;2023-10-13T07:06:42;10.77;;;5.18;;
72087;SDS011;59961;50.232;8.616;2023-10-13T07:09:12;15.07;;;5.70;;
72087;SDS011;59961;50.232;8.616;2023-10-13T07:11:49;11.63;;;5.27;;
72087;SDS011;59961;50.232;8.616;2023-10-13T07:14:19;14.85;;;5.30;;
72087;SDS011;59961;50.232;8.616;2023-10-13T07:16:59;15.82;;;5.10;;
72087;SDS011;59961;50.232;8.616;2023-10-13T07:19:25;11.25;;;5.00;;
72087;SDS011;59961;50.232;8.616;2023-10-13T07:21:53;10.30;;;4.30;;
72087;SDS011;59961;50.232;8.616;2023-10-13T07:24:23;9.40;;;4.23;;
72087;SDS011;59961;50.232;8.616;2023-10-13T07:26:49;11.75;;;4.50;;
72087;SDS011;59961;50.232;8.616;2023-10-13T07:29:22;16.65;;;4.43;;
72087;SDS011;59961;50.232;8.616;2023-10-13T07:31:49;14.50;;;3.90;;
72087;SDS011;59961;50.232;8.616;2023-10-13T07:34:15;10.68;;;3.97;;
72087;SDS011;59961;50.232;8.616;2023-10-13T07:36:54;12.63;;;4.97;;
72087;SDS011;59961;50.232;8.616;2023-10-13T07:39:24;11.95;;;4.13;;
72087;SDS011;59961;50.232;8.616;2023-10-13T07:41:50;12.57;;;4.50;;
72087;SDS011;59961;50.232;8.616;2023-10-13T07:44:19;11.60;;;4.07;;
72087;SDS011;59961;50.232;8.616;2023-10-13T07:46:53;12.35;;;4.00;;
72087;SDS011;59961;50.232;8.616;2023-10-13T07:49:28;12.60;;;4.10;;
72087;SDS011;59961;50.232;8.616;2023-10-13T07:51:56;10.88;;;3.60;;
72087;SDS011;59961;50.232;8.616;2023-10-13T07:54:22;10.32;;;4.25;;
72087;SDS011;59961;50.232;8.616;2023-10-13T07:56:47;11.27;;;3.92;;
72087;SDS011;59961;50.232;8.616;2023-10-13T07:59:13;12.40;;;3.83;;
72087;SDS011;59961;50.232;8.616;2023-10-13T08:01:40;9.63;;;3.95;;
72087;SDS011;59961;50.232;8.616;2023-10-13T08:04:07;11.15;;;4.22;;
72087;SDS011;59961;50.232;8.616;2023-10-13T08:06:35;9.20;;;4.03;;
72087;SDS011;59961;50.232;8.616;2023-10-13T08:09:01;11.75;;;3.75;;
72087;SDS011;59961;50.232;8.616;2023-10-13T08:11:33;13.13;;;4.23;;
72087;SDS011;59961;50.232;8.616;2023-10-13T08:14:05;12.57;;;4.20;;
72087;SDS011;59961;50.232;8.616;2023-10-13T08:16:37;10.02;;;4.10;;
72087;SDS011;59961;50.232;8.616;2023-10-13T08:19:27;11.82;;;3.97;;
72087;SDS011;59961;50.232;8.616;2023-10-13T08:21:53;9.18;;;4.45;;
72087;SDS011;59961;50.232;8.616;2023-10-13T08:24:22;9.53;;;4.20;;
72087;SDS011;59961;50.232;8.616;2023-10-13T08:26:53;9.57;;;3.50;;
72087;SDS011;59961;50.232;8.616;2023-10-13T08:29:43;15.98;;;4.45;;
72087;SDS011;59961;50.232;8.616;2023-10-13T08:32:24;12.48;;;4.15;;
72087;SDS011;59961;50.232;8.616;2023-10-13T08:34:52;14.23;;;4.28;;
72087;SDS011;59961;50.232;8.616;2023-10-13T08:37:17;14.27;;;4.40;;
72087;SDS011;59961;50.232;8.616;2023-10-13T08:39:56;10.97;;;4.27;;
72087;SDS011;59961;50.232;8.616;2023-10-13T08:42:31;12.75;;;4.40;;
72087;SDS011;59961;50.232;8.616;2023-10-13T08:45:18;14.13;;;4.45;;
72087;SDS011;59961;50.232;8.616;2023-10-13T08:48:06;13.95;;;4.85;;
72087;SDS011;59961;50.232;8.616;2023-10-13T08:50:37;15.43;;;4.88;;
72087;SDS011;59961;50.232;8.616;2023-10-13T08:53:24;12.33;;;5.00;;
72087;SDS011;59961;50.232;8.616;2023-10-13T08:56:11;15.25;;;4.50;;
72087;SDS011;59961;50.232;8.616;2023-10-13T09:01:23;12.60;;;4.72;;
72087;SDS011;59961;50.232;8.616;2023-10-13T09:04:08;14.32;;;5.70;;
72087;SDS011;59961;50.232;8.616;2023-10-13T09:06:46;13.23;;;5.53;;
72087;SDS011;59961;50.232;8.616;2023-10-13T09:09:13;9.98;;;5.28;;
72087;SDS011;59961;50.232;8.616;2023-10-13T09:11:52;10.18;;;4.50;;
72087;SDS011;59961;50.232;8.616;2023-10-13T09:14:29;13.95;;;5.75;;
72087;SDS011;59961;50.232;8.616;2023-10-13T09:17:03;11.35;;;5.15;;
72087;SDS011;59961;50.232;8.616;2023-10-13T09:19:47;10.67;;;4.80;;
72087;SDS011;59961;50.232;8.616;2023-10-13T09:22:19;12.75;;;5.18;;
72087;SDS011;59961;50.232;8.616;2023-10-13T09:24:51;11.35;;;5.30;;
72087;SDS011;59961;50.232;8.616;2023-10-13T09:27:16;11.37;;;5.33;;
72087;SDS011;59961;50.232;8.616;2023-10-13T09:29:41;13.00;;;5.22;;
72087;SDS011;59961;50.232;8.616;2023-10-13T09:32:07;11.60;;;4.20;;
72087;SDS011;59961;50.232;8.616;2023-10-13T09:34:36;11.30;;;4.63;;
72087;SDS011;59961;50.232;8.616;2023-10-13T09:37:05;14.68;;;5.20;;
72087;SDS011;59961;50.232;8.616;2023-10-13T09:39:31;13.95;;;4.40;;
72087;SDS011;59961;50.232;8.616;2023-10-13T09:42:32;15.02;;;4.75;;
72087;SDS011;59961;50.232;8.616;2023-10-13T09:44:59;10.90;;;5.00;;
72087;SDS011;59961;50.232;8.616;2023-10-13T09:47:29;8.43;;;4.65;;
72087;SDS011;59961;50.232;8.616;2023-10-13T09:50:01;11.45;;;4.80;;
72087;SDS011;59961;50.232;8.616;2023-10-13T09:52:30;11.07;;;5.13;;
72087;SDS011;59961;50.232;8.616;2023-10-13T09:55:13;12.30;;;4.93;;
72087;SDS011;59961;50.232;8.616;2023-10-13T09:57:43;12.68;;;4.90;;
72087;SDS011;59961;50.232;8.616;2023-10-13T10:00:14;12.75;;;5.00;;
72087;SDS011;59961;50.232;8.616;2023-10-13T10:02:59;9.00;;;4.68;;
72087;SDS011;59961;50.232;8.616;2023-10-13T10:05:31;10.97;;;4.77;;
72087;SDS011;59961;50.232;8.616;2023-10-13T10:07:59;13.60;;;4.93;;
72087;SDS011;59961;50.232;8.616;2023-10-13T10:10:27;10.30;;;4.63;;
72087;SDS011;59961;50.232;8.616;2023-10-13T10:13:21;11.98;;;4.30;;
72087;SDS011;59961;50.232;8.616;2023-10-13T10:15:48;9.48;;;4.43;;
72087;SDS011;59961;50.232;8.616;2023-10-13T10:18:17;10.35;;;4.18;;
72087;SDS011;59961;50.232;8.616;2023-10-13T10:20:44;10.00;;;4.53;;
72087;SDS011;59961;50.232;8.616;2023-10-13T10:23:22;10.98;;;4.57;;
72087;SDS011;59961;50.232;8.616;2023-10-13T10:25:49;11.68;;;4.35;;
72087;SDS011;59961;50.232;8.616;2023-10-13T10:28:16;12.63;;;5.22;;
72087;SDS011;59961;50.232;8.616;2023-10-13T10:30:42;11.90;;;4.87;;
72087;SDS011;59961;50.232;8.616;2023-10-13T10:33:09;9.02;;;4.88;;
72087;SDS011;59961;50.232;8.616;2023-10-13T10:36:27;9.40;;;4.38;;
72087;SDS011;59961;50.232;8.616;2023-10-13T10:38:26;11.15;;;5.18;;
72087;SDS011;59961;50.232;8.616;2023-10-13T10:41:01;8.90;;;4.30;;
72087;SDS011;59961;50.232;8.616;2023-10-13T10:46:06;10.43;;;5.10;;
72087;SDS011;59961;50.232;8.616;2023-10-13T10:48:31;11.07;;;5.17;;
72087;SDS011;59961;50.232;8.616;2023-10-13T10:51:00;11.80;;;4.70;;
72087;SDS011;59961;50.232;8.616;2023-10-13T10:53:33;10.25;;;4.55;;
72087;SDS011;59961;50.232;8.616;2023-10-13T10:56:05;10.07;;;4.18;;
72087;SDS011;59961;50.232;8.616;2023-10-13T10:58:34;10.90;;;4.97;;
72087;SDS011;59961;50.232;8.616;2023-10-13T11:01:08;11.70;;;5.00;;
72087;SDS011;59961;50.232;8.616;2023-10-13T11:03:35;13.80;;;4.70;;
72087;SDS011;59961;50.232;8.616;2023-10-13T11:06:03;10.35;;;3.97;;
72087;SDS011;59961;50.232;8.616;2023-10-13T11:08:28;11.70;;;4.47;;
72087;SDS011;59961;50.232;8.616;2023-10-13T11:10:57;9.98;;;4.82;;
72087;SDS011;59961;50.232;8.616;2023-10-13T11:13:22;14.13;;;4.67;;
72087;SDS011;59961;50.232;8.616;2023-10-13T11:15:48;10.82;;;4.25;;
72087;SDS011;59961;50.232;8.616;2023-10-13T11:18:13;9.67;;;4.63;;
72087;SDS011;59961;50.232;8.616;2023-10-13T11:20:45;10.80;;;4.15;;
72087;SDS011;59961;50.232;8.616;2023-10-13T11:23:11;11.47;;;4.60;;
72087;SDS011;59961;50.232;8.616;2023-10-13T11:25:37;10.63;;;4.95;;
72087;SDS011;59961;50.232;8.616;2023-10-13T11:28:12;10.10;;;5.53;;
72087;SDS011;59961;50.232;8.616;2023-10-13T11:30:52;11.20;;;5.53;;
72087;SDS011;59961;50.232;8.616;2023-10-13T11:33:17;11.30;;;5.07;;
72087;SDS011;59961;50.232;8.616;2023-10-13T11:35:48;11.57;;;4.95;;
72087;SDS011;59961;50.232;8.616;2023-10-13T11:38:19;12.98;;;5.60;;
72087;SDS011;59961;50.232;8.616;2023-10-13T11:40:58;13.87;;;5.43;;
72087;SDS011;59961;50.232;8.616;2023-10-13T11:43:29;9.93;;;4.88;;
72087;SDS011;59961;50.232;8.616;2023-10-13T11:45:56;9.63;;;5.10;;
72087;SDS011;59961;50.232;8.616;2023-10-13T11:48:34;11.07;;;5.20;;
72087;SDS011;59961;50.232;8.616;2023-10-13T11:51:02;12.63;;;5.07;;
72087;SDS011;59961;50.232;8.616;2023-10-13T11:53:36;10.23;;;4.53;;
72087;SDS011;59961;50.232;8.616;2023-10-13T11:56:02;12.38;;;5.07;;
72087;SDS011;59961;50.232;8.616;2023-10-13T11:58:34;12.85;;;5.13;;
72087;SDS011;59961;50.232;8.616;2023-10-13T12:00:59;10.47;;;5.50;;
72087;SDS011;59961;50.232;8.616;2023-10-13T12:03:33;13.38;;;5.22;;
72087;SDS011;59961;50.232;8.616;2023-10-13T12:06:16;15.23;;;5.20;;
72087;SDS011;59961;50.232;8.616;2023-10-13T12:08:57;11.60;;;5.20;;
72087;SDS011;59961;50.232;8.616;2023-10-13T12:11:36;8.60;;;5.00;;
72087;SDS011;59961;50.232;8.616;2023-10-13T12:14:04;11.53;;;5.30;;
72087;SDS011;59961;50.232;8.616;2023-10-13T12:16:41;9.38;;;4.57;;
72087;SDS011;59961;50.232;8.616;2023-10-13T12:19:07;10.10;;;4.63;;
72087;SDS011;59961;50.232;8.616;2023-10-13T12:21:36;13.43;;;5.00;;
72087;SDS011;59961;50.232;8.616;2023-10-13T12:24:04;11.45;;;5.53;;
72087;SDS011;59961;50.232;8.616;2023-10-13T12:26:36;11.30;;;5.00;;
72087;SDS011;59961;50.232;8.616;2023-10-13T12:29:03;11.18;;;5.32;;
72087;SDS011;59961;50.232;8.616;2023-10-13T12:31:32;11.45;;;4.85;;
72087;SDS011;59961;50.232;8.616;2023-10-13T12:33:58;10.27;;;4.93;;
72087;SDS011;59961;50.232;8.616;2023-10-13T12:36:31;10.68;;;5.10;;
72087;SDS011;59961;50.232;8.616;2023-10-13T12:39:05;10.80;;;4.90;;
72087;SDS011;59961;50.232;8.616;2023-10-13T12:41:33;9.00;;;4.78;;
72087;SDS011;59961;50.232;8.616;2023-10-13T12:44:17;8.32;;;4.40;;
72087;SDS011;59961;50.232;8.616;2023-10-13T12:47:01;8.88;;;4.68;;
72087;SDS011;59961;50.232;8.616;2023-10-13T12:49:45;11.23;;;4.88;;
72087;SDS011;59961;50.232;8.616;2023-10-13T12:52:10;8.30;;;4.43;;
72087;SDS011;59961;50.232;8.616;2023-10-13T12:54:44;12.38;;;4.40;;
72087;SDS011;59961;50.232;8.616;2023-10-13T12:57:15;9.10;;;4.38;;
72087;SDS011;59961;50.232;8.616;2023-10-13T12:59:41;10.57;;;5.05;;
72087;SDS011;59961;50.232;8.616;2023-10-13T13:02:06;8.13;;;4.40;;
72087;SDS011;59961;50.232;8.616;2023-10-13T13:04:32;8.10;;;4.93;;
72087;SDS011;59961;50.232;8.616;2023-10-13T13:07:02;9.07;;;4.65;;
72087;SDS011;59961;50.232;8.616;2023-10-13T13:09:28;11.80;;;4.63;;
72087;SDS011;59961;50.232;8.616;2023-10-13T13:11:53;11.77;;;4.87;;
72087;SDS011;59961;50.232;8.616;2023-10-13T13:14:22;13.30;;;5.10;;
72087;SDS011;59961;50.232;8.616;2023-10-13T13:16:47;10.07;;;4.40;;
72087;SDS011;59961;50.232;8.616;2023-10-13T13:19:13;9.45;;;4.68;;
72087;SDS011;59961;50.232;8.616;2023-10-13T13:21:39;10.05;;;5.07;;
72087;SDS011;59961;50.232;8.616;2023-10-13T13:24:06;9.97;;;4.83;;
72087;SDS011;59961;50.232;8.616;2023-10-13T13:26:39;9.15;;;4.57;;
72087;SDS011;59961;50.232;8.616;2023-10-13T13:29:07;12.32;;;5.70;;
72087;SDS011;59961;50.232;8.616;2023-10-13T13:31:35;8.70;;;4.50;;
72087;SDS011;59961;50.232;8.616;2023-10-13T13:34:08;10.40;;;4.30;;
72087;SDS011;59961;50.232;8.616;2023-10-13T13:36:37;11.57;;;4.20;;
72087;SDS011;59961;50.232;8.616;2023-10-13T13:39:03;7.22;;;4.35;;
72087;SDS011;59961;50.232;8.616;2023-10-13T13:41:28;9.63;;;4.20;;
72087;SDS011;59961;50.232;8.616;2023-10-13T13:43:57;9.20;;;4.72;;
72087;SDS011;59961;50.232;8.616;2023-10-13T13:46:33;14.25;;;4.75;;
72087;SDS011;59961;50.232;8.616;2023-10-13T13:48:58;7.95;;;4.03;;
72087;SDS011;59961;50.232;8.616;2023-10-13T13:51:24;9.97;;;4.00;;
72087;SDS011;59961;50.232;8.616;2023-10-13T13:53:53;14.10;;;4.80;;
72087;SDS011;59961;50.232;8.616;2023-10-13T13:56:19;8.48;;;3.80;;
72087;SDS011;59961;50.232;8.616;2023-10-13T13:58:47;8.90;;;4.20;;
72087;SDS011;59961;50.232;8.616;2023-10-13T14:01:13;7.40;;;3.85;;
72087;SDS011;59961;50.232;8.616;2023-10-13T14:03:44;8.90;;;4.45;;
72087;SDS011;59961;50.232;8.616;2023-10-13T14:08:43;10.57;;;4.37;;
72087;SDS011;59961;50.232;8.616;2023-10-13T14:11:09;9.70;;;4.22;;
72087;SDS011;59961;50.232;8.616;2023-10-13T14:13:38;11.40;;;4.25;;
72087;SDS011;59961;50.232;8.616;2023-10-13T14:16:16;11.38;;;3.97;;
72087;SDS011;59961;50.232;8.616;2023-10-13T14:18:43;8.27;;;4.07;;
72087;SDS011;59961;50.232;8.616;2023-10-13T14:21:08;10.82;;;4.20;;
72087;SDS011;59961;50.232;8.616;2023-10-13T14:23:33;11.23;;;4.35;;
72087;SDS011;59961;50.232;8.616;2023-10-13T14:25:59;8.13;;;3.75;;
72087;SDS011;59961;50.232;8.616;2023-10-13T14:28:24;9.57;;;4.03;;
72087;SDS011;59961;50.232;8.616;2023-10-13T14:30:57;8.80;;;4.18;;
72087;SDS011;59961;50.232;8.616;2023-10-13T14:33:22;8.85;;;4.55;;
72087;SDS011;59961;50.232;8.616;2023-10-13T14:35:50;7.40;;;3.80;;
72087;SDS011;59961;50.232;8.616;2023-10-13T14:38:15;10.60;;;4.60;;
72087;SDS011;59961;50.232;8.616;2023-10-13T14:40:41;8.88;;;3.97;;
72087;SDS011;59961;50.232;8.616;2023-10-13T14:43:06;9.87;;;4.30;;
72087;SDS011;59961;50.232;8.616;2023-10-13T14:45:34;11.25;;;4.07;;
72087;SDS011;59961;50.232;8.616;2023-10-13T14:47:59;7.95;;;3.97;;
72087;SDS011;59961;50.232;8.616;2023-10-13T14:50:25;10.60;;;4.00;;
72087;SDS011;59961;50.232;8.616;2023-10-13T14:52:51;14.10;;;4.50;;
72087;SDS011;59961;50.232;8.616;2023-10-13T14:55:16;9.03;;;4.10;;
72087;SDS011;59961;50.232;8.616;2023-10-13T14:57:47;9.60;;;3.90;;
72087;SDS011;59961;50.232;8.616;2023-10-13T15:00:13;8.45;;;4.00;;
72087;SDS011;59961;50.232;8.616;2023-10-13T15:02:39;8.18;;;3.75;;
72087;SDS011;59961;50.232;8.616;2023-10-13T15:05:08;9.00;;;4.15;;
72087;SDS011;59961;50.232;8.616;2023-10-13T15:07:33;10.10;;;4.50;;
72087;SDS011;59961;50.232;8.616;2023-10-13T15:09:58;8.80;;;4.00;;
72087;SDS011;59961;50.232;8.616;2023-10-13T15:12:23;9.85;;;4.55;;
72087;SDS011;59961;50.232;8.616;2023-10-13T15:14:50;8.50;;;4.43;;